sensor_id;sensor_type;location;lat;lon;timestamp;P1;durP1;ratioP1;P2;durP2;ratioP2
65463;SDS011;52063;45.110;9.870;2022-08-19T00:02:04;8.47;;;4.23;;
65463;SDS011;52063;45.110;9.870;2022-08-19T00:04:31;7.83;;;3.40;;
65463;SDS011;52063;45.110;9.870;2022-08-19T00:06:57;8.50;;;3.50;;
65463;SDS011;52063;45.110;9.870;2022-08-19T00:09:23;9.10;;;3.50;;
65463;SDS011;52063;45.110;9.870;2022-08-19T00:11:49;7.67;;;3.37;;
65463;SDS011;52063;45.110;9.870;2022-08-19T00:14:16;8.45;;;3.33;;
65463;SDS011;52063;45.110;9.870;2022-08-19T00:16:42;6.53;;;3.92;;
65463;SDS011;52063;45.110;9.870;2022-08-19T00:19:08;10.30;;;4.20;;
65463;SDS011;52063;45.110;9.870;2022-08-19T00:21:33;7.47;;;3.70;;
65463;SDS011;52063;45.110;9.870;2022-08-19T00:24:03;15.77;;;4.25;;
65463;SDS011;52063;45.110;9.870;2022-08-19T00:26:28;6.33;;;3.97;;
65463;SDS011;52063;45.110;9.870;2022-08-19T00:28:54;9.13;;;3.65;;
65463;SDS011;52063;45.110;9.870;2022-08-19T00:31:19;7.47;;;2.73;;
65463;SDS011;52063;45.110;9.870;2022-08-19T00:33:45;7.45;;;2.47;;
65463;SDS011;52063;45.110;9.870;2022-08-19T00:36:11;7.63;;;2.60;;
65463;SDS011;52063;45.110;9.870;2022-08-19T00:38:37;8.25;;;2.40;;
65463;SDS011;52063;45.110;9.870;2022-08-19T00:41:04;5.40;;;2.87;;
65463;SDS011;52063;45.110;9.870;2022-08-19T00:43:30;7.88;;;2.80;;
65463;SDS011;52063;45.110;9.870;2022-08-19T00:45:55;7.90;;;4.90;;
65463;SDS011;52063;45.110;9.870;2022-08-19T00:48:20;9.70;;;5.32;;
65463;SDS011;52063;45.110;9.870;2022-08-19T00:50:48;10.20;;;5.00;;
65463;SDS011;52063;45.110;9.870;2022-08-19T00:53:14;9.60;;;4.40;;
65463;SDS011;52063;45.110;9.870;2022-08-19T00:55:40;11.77;;;5.25;;
65463;SDS011;52063;45.110;9.870;2022-08-19T00:58:10;6.10;;;3.85;;
65463;SDS011;52063;45.110;9.870;2022-08-19T01:00:37;6.87;;;3.83;;
65463;SDS011;52063;45.110;9.870;2022-08-19T01:03:06;5.53;;;3.70;;
65463;SDS011;52063;45.110;9.870;2022-08-19T01:05:32;7.90;;;3.20;;
65463;SDS011;52063;45.110;9.870;2022-08-19T01:07:59;9.27;;;3.70;;
65463;SDS011;52063;45.110;9.870;2022-08-19T01:10:26;8.48;;;3.15;;
65463;SDS011;52063;45.110;9.870;2022-08-19T01:12:52;9.38;;;3.00;;
65463;SDS011;52063;45.110;9.870;2022-08-19T01:15:20;6.70;;;3.93;;
65463;SDS011;52063;45.110;9.870;2022-08-19T01:17:46;5.43;;;3.10;;
65463;SDS011;52063;45.110;9.870;2022-08-19T01:20:13;7.65;;;3.25;;
65463;SDS011;52063;45.110;9.870;2022-08-19T01:22:43;5.97;;;4.60;;
65463;SDS011;52063;45.110;9.870;2022-08-19T01:25:09;10.13;;;5.10;;
65463;SDS011;52063;45.110;9.870;2022-08-19T01:27:38;4.40;;;3.20;;
65463;SDS011;52063;45.110;9.870;2022-08-19T01:30:04;9.32;;;3.78;;
65463;SDS011;52063;45.110;9.870;2022-08-19T01:32:30;6.75;;;4.25;;
65463;SDS011;52063;45.110;9.870;2022-08-19T01:34:56;10.93;;;5.80;;
65463;SDS011;52063;45.110;9.870;2022-08-19T01:37:21;7.60;;;4.30;;
65463;SDS011;52063;45.110;9.870;2022-08-19T01:39:46;8.07;;;4.97;;
65463;SDS011;52063;45.110;9.870;2022-08-19T01:42:12;7.90;;;5.40;;
65463;SDS011;52063;45.110;9.870;2022-08-19T01:44:38;7.33;;;4.33;;
65463;SDS011;52063;45.110;9.870;2022-08-19T01:47:06;8.30;;;4.95;;
65463;SDS011;52063;45.110;9.870;2022-08-19T01:49:31;10.47;;;5.93;;
65463;SDS011;52063;45.110;9.870;2022-08-19T01:51:58;7.23;;;4.03;;
65463;SDS011;52063;45.110;9.870;2022-08-19T01:54:24;12.25;;;5.35;;
65463;SDS011;52063;45.110;9.870;2022-08-19T01:56:50;7.33;;;3.50;;
65463;SDS011;52063;45.110;9.870;2022-08-19T01:59:17;9.05;;;4.22;;
65463;SDS011;52063;45.110;9.870;2022-08-19T02:01:44;9.27;;;4.05;;
65463;SDS011;52063;45.110;9.870;2022-08-19T02:04:09;5.57;;;4.13;;
65463;SDS011;52063;45.110;9.870;2022-08-19T02:06:35;6.97;;;3.20;;
65463;SDS011;52063;45.110;9.870;2022-08-19T02:09:01;5.70;;;3.20;;
65463;SDS011;52063;45.110;9.870;2022-08-19T02:11:28;8.93;;;3.40;;
65463;SDS011;52063;45.110;9.870;2022-08-19T02:13:54;6.07;;;3.28;;
65463;SDS011;52063;45.110;9.870;2022-08-19T02:16:20;6.18;;;2.63;;
65463;SDS011;52063;45.110;9.870;2022-08-19T02:18:49;4.78;;;2.58;;
65463;SDS011;52063;45.110;9.870;2022-08-19T02:21:16;6.87;;;2.57;;
65463;SDS011;52063;45.110;9.870;2022-08-19T02:23:42;3.58;;;2.03;;
65463;SDS011;52063;45.110;9.870;2022-08-19T02:26:07;4.65;;;1.95;;
65463;SDS011;52063;45.110;9.870;2022-08-19T02:28:33;8.60;;;2.25;;
65463;SDS011;52063;45.110;9.870;2022-08-19T02:30:59;5.60;;;1.80;;
65463;SDS011;52063;45.110;9.870;2022-08-19T02:33:25;6.20;;;2.00;;
65463;SDS011;52063;45.110;9.870;2022-08-19T02:35:51;3.50;;;1.70;;
65463;SDS011;52063;45.110;9.870;2022-08-19T02:38:16;8.00;;;1.90;;
65463;SDS011;52063;45.110;9.870;2022-08-19T02:40:51;6.35;;;2.00;;
65463;SDS011;52063;45.110;9.870;2022-08-19T02:43:17;4.22;;;1.90;;
65463;SDS011;52063;45.110;9.870;2022-08-19T02:45:43;6.33;;;1.63;;
65463;SDS011;52063;45.110;9.870;2022-08-19T02:48:08;3.00;;;1.70;;
65463;SDS011;52063;45.110;9.870;2022-08-19T02:50:37;4.67;;;1.70;;
65463;SDS011;52063;45.110;9.870;2022-08-19T02:53:02;4.18;;;1.80;;
65463;SDS011;52063;45.110;9.870;2022-08-19T02:55:27;5.57;;;1.60;;
65463;SDS011;52063;45.110;9.870;2022-08-19T02:57:53;4.20;;;1.90;;
65463;SDS011;52063;45.110;9.870;2022-08-19T03:00:18;3.87;;;1.70;;
65463;SDS011;52063;45.110;9.870;2022-08-19T03:02:43;6.25;;;1.90;;
65463;SDS011;52063;45.110;9.870;2022-08-19T03:05:09;4.87;;;1.37;;
65463;SDS011;52063;45.110;9.870;2022-08-19T03:07:35;2.65;;;1.50;;
65463;SDS011;52063;45.110;9.870;2022-08-19T03:10:01;2.60;;;1.37;;
65463;SDS011;52063;45.110;9.870;2022-08-19T03:12:26;5.35;;;1.50;;
65463;SDS011;52063;45.110;9.870;2022-08-19T03:14:51;3.33;;;1.30;;
65463;SDS011;52063;45.110;9.870;2022-08-19T03:17:18;3.38;;;1.50;;
65463;SDS011;52063;45.110;9.870;2022-08-19T03:19:43;2.57;;;1.50;;
65463;SDS011;52063;45.110;9.870;2022-08-19T03:22:09;3.17;;;1.67;;
65463;SDS011;52063;45.110;9.870;2022-08-19T03:24:34;3.40;;;1.47;;
65463;SDS011;52063;45.110;9.870;2022-08-19T03:26:59;4.07;;;1.57;;
65463;SDS011;52063;45.110;9.870;2022-08-19T03:29:26;6.53;;;1.83;;
65463;SDS011;52063;45.110;9.870;2022-08-19T03:31:52;4.13;;;1.50;;
65463;SDS011;52063;45.110;9.870;2022-08-19T03:34:19;2.88;;;1.40;;
65463;SDS011;52063;45.110;9.870;2022-08-19T03:36:45;6.17;;;1.40;;
65463;SDS011;52063;45.110;9.870;2022-08-19T03:39:11;4.35;;;1.30;;
65463;SDS011;52063;45.110;9.870;2022-08-19T03:41:37;3.25;;;1.60;;
65463;SDS011;52063;45.110;9.870;2022-08-19T03:44:03;4.18;;;1.58;;
65463;SDS011;52063;45.110;9.870;2022-08-19T03:46:30;3.27;;;1.40;;
65463;SDS011;52063;45.110;9.870;2022-08-19T03:48:58;2.95;;;1.30;;
65463;SDS011;52063;45.110;9.870;2022-08-19T03:51:25;3.40;;;1.48;;
65463;SDS011;52063;45.110;9.870;2022-08-19T03:53:51;4.82;;;1.55;;
65463;SDS011;52063;45.110;9.870;2022-08-19T03:56:17;4.22;;;1.27;;
65463;SDS011;52063;45.110;9.870;2022-08-19T03:58:42;4.83;;;1.50;;
65463;SDS011;52063;45.110;9.870;2022-08-19T04:01:14;4.03;;;1.63;;
65463;SDS011;52063;45.110;9.870;2022-08-19T04:03:40;2.38;;;1.40;;
65463;SDS011;52063;45.110;9.870;2022-08-19T04:06:19;2.15;;;1.15;;
65463;SDS011;52063;45.110;9.870;2022-08-19T04:08:46;4.80;;;1.53;;
65463;SDS011;52063;45.110;9.870;2022-08-19T04:11:13;1.50;;;1.27;;
65463;SDS011;52063;45.110;9.870;2022-08-19T04:13:39;3.65;;;1.65;;
65463;SDS011;52063;45.110;9.870;2022-08-19T04:16:05;3.03;;;1.50;;
65463;SDS011;52063;45.110;9.870;2022-08-19T04:18:31;3.67;;;1.70;;
65463;SDS011;52063;45.110;9.870;2022-08-19T04:20:57;2.35;;;1.33;;
65463;SDS011;52063;45.110;9.870;2022-08-19T04:23:23;2.97;;;1.57;;
65463;SDS011;52063;45.110;9.870;2022-08-19T04:25:49;3.72;;;1.63;;
65463;SDS011;52063;45.110;9.870;2022-08-19T04:28:14;2.67;;;1.33;;
65463;SDS011;52063;45.110;9.870;2022-08-19T04:30:44;2.80;;;1.10;;
65463;SDS011;52063;45.110;9.870;2022-08-19T04:33:10;2.25;;;1.10;;
65463;SDS011;52063;45.110;9.870;2022-08-19T04:35:40;3.72;;;1.30;;
65463;SDS011;52063;45.110;9.870;2022-08-19T04:38:06;3.45;;;1.25;;
65463;SDS011;52063;45.110;9.870;2022-08-19T04:40:32;2.37;;;1.10;;
65463;SDS011;52063;45.110;9.870;2022-08-19T04:43:16;3.28;;;1.30;;
65463;SDS011;52063;45.110;9.870;2022-08-19T04:45:42;1.83;;;1.23;;
65463;SDS011;52063;45.110;9.870;2022-08-19T04:48:08;2.28;;;1.20;;
65463;SDS011;52063;45.110;9.870;2022-08-19T04:50:34;2.13;;;1.50;;
65463;SDS011;52063;45.110;9.870;2022-08-19T04:53:01;2.67;;;1.30;;
65463;SDS011;52063;45.110;9.870;2022-08-19T04:55:26;3.23;;;1.30;;
65463;SDS011;52063;45.110;9.870;2022-08-19T04:57:52;2.73;;;1.33;;
65463;SDS011;52063;45.110;9.870;2022-08-19T05:00:17;1.80;;;1.27;;
65463;SDS011;52063;45.110;9.870;2022-08-19T05:02:43;2.90;;;1.40;;
65463;SDS011;52063;45.110;9.870;2022-08-19T05:05:08;2.90;;;1.30;;
65463;SDS011;52063;45.110;9.870;2022-08-19T05:07:34;3.87;;;1.37;;
65463;SDS011;52063;45.110;9.870;2022-08-19T05:09:59;3.07;;;1.43;;
65463;SDS011;52063;45.110;9.870;2022-08-19T05:12:25;2.57;;;1.33;;
65463;SDS011;52063;45.110;9.870;2022-08-19T05:14:51;2.35;;;1.42;;
65463;SDS011;52063;45.110;9.870;2022-08-19T05:17:17;3.63;;;1.13;;
65463;SDS011;52063;45.110;9.870;2022-08-19T05:19:42;2.97;;;1.10;;
65463;SDS011;52063;45.110;9.870;2022-08-19T05:22:26;4.03;;;1.60;;
65463;SDS011;52063;45.110;9.870;2022-08-19T05:25:05;3.23;;;1.20;;
65463;SDS011;52063;45.110;9.870;2022-08-19T05:27:31;2.63;;;1.10;;
65463;SDS011;52063;45.110;9.870;2022-08-19T05:29:57;3.95;;;1.30;;
65463;SDS011;52063;45.110;9.870;2022-08-19T05:32:22;1.50;;;0.90;;
65463;SDS011;52063;45.110;9.870;2022-08-19T05:34:48;2.40;;;0.95;;
65463;SDS011;52063;45.110;9.870;2022-08-19T05:37:14;2.97;;;1.40;;
65463;SDS011;52063;45.110;9.870;2022-08-19T05:39:39;2.05;;;1.10;;
65463;SDS011;52063;45.110;9.870;2022-08-19T05:42:06;2.30;;;1.03;;
65463;SDS011;52063;45.110;9.870;2022-08-19T05:44:33;3.15;;;1.30;;
65463;SDS011;52063;45.110;9.870;2022-08-19T05:46:59;3.83;;;1.15;;
65463;SDS011;52063;45.110;9.870;2022-08-19T05:49:25;1.67;;;1.17;;
65463;SDS011;52063;45.110;9.870;2022-08-19T05:51:52;4.20;;;1.15;;
65463;SDS011;52063;45.110;9.870;2022-08-19T05:54:17;4.97;;;1.07;;
65463;SDS011;52063;45.110;9.870;2022-08-19T05:56:43;2.17;;;1.02;;
65463;SDS011;52063;45.110;9.870;2022-08-19T05:59:09;3.57;;;0.80;;
65463;SDS011;52063;45.110;9.870;2022-08-19T06:01:39;2.67;;;1.05;;
65463;SDS011;52063;45.110;9.870;2022-08-19T06:04:05;3.22;;;1.17;;
65463;SDS011;52063;45.110;9.870;2022-08-19T06:06:31;1.50;;;0.80;;
65463;SDS011;52063;45.110;9.870;2022-08-19T06:08:59;2.53;;;0.90;;
65463;SDS011;52063;45.110;9.870;2022-08-19T06:11:31;2.50;;;1.00;;
65463;SDS011;52063;45.110;9.870;2022-08-19T06:13:59;1.67;;;0.90;;
65463;SDS011;52063;45.110;9.870;2022-08-19T06:16:25;2.03;;;1.10;;
65463;SDS011;52063;45.110;9.870;2022-08-19T06:18:53;3.13;;;1.35;;
65463;SDS011;52063;45.110;9.870;2022-08-19T06:21:20;3.03;;;1.03;;
65463;SDS011;52063;45.110;9.870;2022-08-19T06:23:46;1.63;;;0.93;;
65463;SDS011;52063;45.110;9.870;2022-08-19T06:26:12;2.35;;;1.02;;
65463;SDS011;52063;45.110;9.870;2022-08-19T06:28:37;2.92;;;1.10;;
65463;SDS011;52063;45.110;9.870;2022-08-19T06:31:18;2.23;;;0.90;;
65463;SDS011;52063;45.110;9.870;2022-08-19T06:33:45;3.22;;;0.90;;
65463;SDS011;52063;45.110;9.870;2022-08-19T06:36:17;3.83;;;1.03;;
65463;SDS011;52063;45.110;9.870;2022-08-19T06:38:43;2.00;;;1.20;;
65463;SDS011;52063;45.110;9.870;2022-08-19T06:41:08;4.30;;;1.00;;
65463;SDS011;52063;45.110;9.870;2022-08-19T06:43:34;4.13;;;0.98;;
65463;SDS011;52063;45.110;9.870;2022-08-19T06:46:01;3.00;;;1.05;;
65463;SDS011;52063;45.110;9.870;2022-08-19T06:48:28;2.65;;;1.10;;
65463;SDS011;52063;45.110;9.870;2022-08-19T06:50:53;2.47;;;1.20;;
65463;SDS011;52063;45.110;9.870;2022-08-19T06:53:19;2.33;;;1.50;;
65463;SDS011;52063;45.110;9.870;2022-08-19T06:55:45;14.67;;;1.50;;
65463;SDS011;52063;45.110;9.870;2022-08-19T06:58:10;3.65;;;1.90;;
65463;SDS011;52063;45.110;9.870;2022-08-19T07:00:35;4.83;;;1.77;;
65463;SDS011;52063;45.110;9.870;2022-08-19T07:03:01;3.50;;;1.40;;
65463;SDS011;52063;45.110;9.870;2022-08-19T07:05:27;2.60;;;1.20;;
65463;SDS011;52063;45.110;9.870;2022-08-19T07:07:52;2.17;;;1.10;;
65463;SDS011;52063;45.110;9.870;2022-08-19T07:10:18;2.23;;;0.90;;
65463;SDS011;52063;45.110;9.870;2022-08-19T07:12:44;4.35;;;0.80;;
65463;SDS011;52063;45.110;9.870;2022-08-19T07:15:09;2.17;;;0.70;;
65463;SDS011;52063;45.110;9.870;2022-08-19T07:17:35;1.10;;;0.60;;
65463;SDS011;52063;45.110;9.870;2022-08-19T07:20:05;1.60;;;0.50;;
65463;SDS011;52063;45.110;9.870;2022-08-19T07:22:32;1.97;;;0.60;;
65463;SDS011;52063;45.110;9.870;2022-08-19T07:24:59;2.20;;;0.50;;
65463;SDS011;52063;45.110;9.870;2022-08-19T07:27:24;0.90;;;0.50;;
65463;SDS011;52063;45.110;9.870;2022-08-19T07:29:50;0.90;;;0.60;;
65463;SDS011;52063;45.110;9.870;2022-08-19T07:32:15;1.45;;;0.80;;
65463;SDS011;52063;45.110;9.870;2022-08-19T07:34:41;2.23;;;1.20;;
65463;SDS011;52063;45.110;9.870;2022-08-19T07:37:06;2.27;;;1.20;;
65463;SDS011;52063;45.110;9.870;2022-08-19T07:39:33;1.92;;;0.70;;
65463;SDS011;52063;45.110;9.870;2022-08-19T07:42:00;3.15;;;0.60;;
65463;SDS011;52063;45.110;9.870;2022-08-19T07:44:25;2.73;;;0.50;;
65463;SDS011;52063;45.110;9.870;2022-08-19T07:46:52;1.15;;;0.60;;
65463;SDS011;52063;45.110;9.870;2022-08-19T07:49:18;1.47;;;0.50;;
65463;SDS011;52063;45.110;9.870;2022-08-19T07:51:51;1.10;;;0.40;;
65463;SDS011;52063;45.110;9.870;2022-08-19T07:54:17;1.63;;;0.70;;
65463;SDS011;52063;45.110;9.870;2022-08-19T07:56:43;1.48;;;0.70;;
65463;SDS011;52063;45.110;9.870;2022-08-19T07:59:08;4.03;;;0.87;;
65463;SDS011;52063;45.110;9.870;2022-08-19T08:01:34;1.10;;;0.60;;
65463;SDS011;52063;45.110;9.870;2022-08-19T08:03:59;2.75;;;0.65;;
65463;SDS011;52063;45.110;9.870;2022-08-19T08:06:43;1.98;;;0.80;;
65463;SDS011;52063;45.110;9.870;2022-08-19T08:09:31;2.70;;;0.80;;
65463;SDS011;52063;45.110;9.870;2022-08-19T08:11:59;2.08;;;0.60;;
65463;SDS011;52063;45.110;9.870;2022-08-19T08:14:28;1.88;;;0.60;;
65463;SDS011;52063;45.110;9.870;2022-08-19T08:16:54;2.25;;;0.50;;
65463;SDS011;52063;45.110;9.870;2022-08-19T08:19:20;1.93;;;0.50;;
65463;SDS011;52063;45.110;9.870;2022-08-19T08:21:46;1.05;;;0.45;;
65463;SDS011;52063;45.110;9.870;2022-08-19T08:24:12;0.83;;;0.50;;
65463;SDS011;52063;45.110;9.870;2022-08-19T08:26:38;1.45;;;0.60;;
65463;SDS011;52063;45.110;9.870;2022-08-19T08:29:03;1.33;;;0.47;;
65463;SDS011;52063;45.110;9.870;2022-08-19T08:31:28;1.70;;;0.60;;
65463;SDS011;52063;45.110;9.870;2022-08-19T08:33:54;1.92;;;0.50;;
65463;SDS011;52063;45.110;9.870;2022-08-19T08:36:19;3.07;;;0.60;;
65463;SDS011;52063;45.110;9.870;2022-08-19T08:38:45;3.37;;;0.60;;
65463;SDS011;52063;45.110;9.870;2022-08-19T08:43:55;2.78;;;0.80;;
65463;SDS011;52063;45.110;9.870;2022-08-19T08:51:44;1.40;;;0.60;;
65463;SDS011;52063;45.110;9.870;2022-08-19T08:54:13;1.50;;;0.60;;
65463;SDS011;52063;45.110;9.870;2022-08-19T08:56:39;1.63;;;0.50;;
65463;SDS011;52063;45.110;9.870;2022-08-19T08:59:07;3.03;;;0.60;;
65463;SDS011;52063;45.110;9.870;2022-08-19T09:01:35;6.15;;;0.50;;
65463;SDS011;52063;45.110;9.870;2022-08-19T09:04:02;2.10;;;0.80;;
65463;SDS011;52063;45.110;9.870;2022-08-19T09:09:26;2.07;;;0.67;;
65463;SDS011;52063;45.110;9.870;2022-08-19T09:16:50;2.45;;;0.65;;
65463;SDS011;52063;45.110;9.870;2022-08-19T09:19:16;3.63;;;0.60;;
65463;SDS011;52063;45.110;9.870;2022-08-19T09:21:42;1.80;;;0.50;;
65463;SDS011;52063;45.110;9.870;2022-08-19T09:24:08;1.73;;;0.60;;
65463;SDS011;52063;45.110;9.870;2022-08-19T09:26:33;0.93;;;0.53;;
65463;SDS011;52063;45.110;9.870;2022-08-19T09:28:59;1.27;;;0.50;;
65463;SDS011;52063;45.110;9.870;2022-08-19T09:31:26;1.57;;;0.43;;
65463;SDS011;52063;45.110;9.870;2022-08-19T09:33:52;1.90;;;0.63;;
65463;SDS011;52063;45.110;9.870;2022-08-19T09:36:18;2.08;;;0.80;;
65463;SDS011;52063;45.110;9.870;2022-08-19T09:38:44;1.50;;;0.82;;
65463;SDS011;52063;45.110;9.870;2022-08-19T09:41:11;2.50;;;1.03;;
65463;SDS011;52063;45.110;9.870;2022-08-19T09:43:38;1.27;;;0.60;;
65463;SDS011;52063;45.110;9.870;2022-08-19T09:46:04;5.40;;;0.90;;
65463;SDS011;52063;45.110;9.870;2022-08-19T09:48:40;4.38;;;1.20;;
65463;SDS011;52063;45.110;9.870;2022-08-19T09:51:10;2.22;;;0.82;;
65463;SDS011;52063;45.110;9.870;2022-08-19T09:53:36;2.88;;;0.80;;
65463;SDS011;52063;45.110;9.870;2022-08-19T09:56:02;3.40;;;1.00;;
65463;SDS011;52063;45.110;9.870;2022-08-19T09:58:28;2.37;;;1.07;;
65463;SDS011;52063;45.110;9.870;2022-08-19T10:00:56;7.03;;;1.65;;
65463;SDS011;52063;45.110;9.870;2022-08-19T10:03:21;5.95;;;1.30;;
65463;SDS011;52063;45.110;9.870;2022-08-19T10:05:47;2.40;;;1.00;;
65463;SDS011;52063;45.110;9.870;2022-08-19T10:08:21;2.40;;;1.00;;
65463;SDS011;52063;45.110;9.870;2022-08-19T10:10:47;3.58;;;0.80;;
65463;SDS011;52063;45.110;9.870;2022-08-19T10:13:14;3.03;;;0.60;;
65463;SDS011;52063;45.110;9.870;2022-08-19T10:15:39;1.40;;;0.50;;
65463;SDS011;52063;45.110;9.870;2022-08-19T10:18:06;3.30;;;0.80;;
65463;SDS011;52063;45.110;9.870;2022-08-19T10:20:31;2.50;;;0.60;;
65463;SDS011;52063;45.110;9.870;2022-08-19T10:22:57;2.97;;;0.80;;
65463;SDS011;52063;45.110;9.870;2022-08-19T10:25:24;5.03;;;0.63;;
65463;SDS011;52063;45.110;9.870;2022-08-19T10:27:51;1.33;;;0.40;;
65463;SDS011;52063;45.110;9.870;2022-08-19T10:30:16;1.80;;;0.60;;
65463;SDS011;52063;45.110;9.870;2022-08-19T10:32:42;1.80;;;0.70;;
65463;SDS011;52063;45.110;9.870;2022-08-19T10:35:07;2.60;;;0.53;;
65463;SDS011;52063;45.110;9.870;2022-08-19T10:37:33;2.85;;;0.80;;
65463;SDS011;52063;45.110;9.870;2022-08-19T10:39:59;1.55;;;0.77;;
65463;SDS011;52063;45.110;9.870;2022-08-19T10:42:24;2.03;;;0.83;;
65463;SDS011;52063;45.110;9.870;2022-08-19T10:44:50;1.77;;;0.50;;
65463;SDS011;52063;45.110;9.870;2022-08-19T10:47:15;1.07;;;0.63;;
65463;SDS011;52063;45.110;9.870;2022-08-19T10:49:40;1.30;;;0.70;;
65463;SDS011;52063;45.110;9.870;2022-08-19T10:52:25;2.17;;;0.60;;
65463;SDS011;52063;45.110;9.870;2022-08-19T10:55:03;2.67;;;0.90;;
65463;SDS011;52063;45.110;9.870;2022-08-19T10:57:47;1.63;;;0.50;;
65463;SDS011;52063;45.110;9.870;2022-08-19T11:00:13;2.65;;;0.60;;
65463;SDS011;52063;45.110;9.870;2022-08-19T11:02:38;1.10;;;0.60;;
65463;SDS011;52063;45.110;9.870;2022-08-19T11:05:04;1.20;;;0.50;;
65463;SDS011;52063;45.110;9.870;2022-08-19T11:07:30;2.55;;;0.65;;
65463;SDS011;52063;45.110;9.870;2022-08-19T11:09:56;1.90;;;1.23;;
65463;SDS011;52063;45.110;9.870;2022-08-19T11:12:21;2.38;;;0.90;;
65463;SDS011;52063;45.110;9.870;2022-08-19T11:14:46;1.73;;;1.03;;
65463;SDS011;52063;45.110;9.870;2022-08-19T11:17:14;2.38;;;1.10;;
65463;SDS011;52063;45.110;9.870;2022-08-19T11:19:40;4.83;;;1.50;;
65463;SDS011;52063;45.110;9.870;2022-08-19T11:22:08;2.30;;;1.10;;
65463;SDS011;52063;45.110;9.870;2022-08-19T11:24:34;3.53;;;1.20;;
65463;SDS011;52063;45.110;9.870;2022-08-19T11:27:00;2.67;;;1.37;;
65463;SDS011;52063;45.110;9.870;2022-08-19T11:29:27;5.40;;;1.30;;
65463;SDS011;52063;45.110;9.870;2022-08-19T11:31:54;2.70;;;2.17;;
65463;SDS011;52063;45.110;9.870;2022-08-19T11:34:24;5.40;;;2.23;;
65463;SDS011;52063;45.110;9.870;2022-08-19T11:36:50;2.83;;;1.60;;
65463;SDS011;52063;45.110;9.870;2022-08-19T11:39:17;3.42;;;1.70;;
65463;SDS011;52063;45.110;9.870;2022-08-19T11:41:42;3.58;;;2.00;;
65463;SDS011;52063;45.110;9.870;2022-08-19T11:44:08;1.97;;;1.63;;
65463;SDS011;52063;45.110;9.870;2022-08-19T11:46:34;2.67;;;1.30;;
65463;SDS011;52063;45.110;9.870;2022-08-19T11:49:00;2.60;;;1.20;;
65463;SDS011;52063;45.110;9.870;2022-08-19T11:51:28;1.98;;;1.10;;
65463;SDS011;52063;45.110;9.870;2022-08-19T11:53:54;5.55;;;1.02;;
65463;SDS011;52063;45.110;9.870;2022-08-19T11:56:20;3.50;;;1.20;;
65463;SDS011;52063;45.110;9.870;2022-08-19T11:58:46;2.53;;;1.05;;
65463;SDS011;52063;45.110;9.870;2022-08-19T12:01:13;1.27;;;0.80;;
65463;SDS011;52063;45.110;9.870;2022-08-19T12:03:41;1.53;;;0.90;;
65463;SDS011;52063;45.110;9.870;2022-08-19T12:06:08;1.65;;;1.10;;
65463;SDS011;52063;45.110;9.870;2022-08-19T12:08:33;1.45;;;0.90;;
65463;SDS011;52063;45.110;9.870;2022-08-19T12:10:59;2.70;;;1.00;;
65463;SDS011;52063;45.110;9.870;2022-08-19T12:13:26;3.58;;;1.08;;
65463;SDS011;52063;45.110;9.870;2022-08-19T12:15:52;1.63;;;1.10;;
65463;SDS011;52063;45.110;9.870;2022-08-19T12:18:18;2.27;;;1.53;;
65463;SDS011;52063;45.110;9.870;2022-08-19T12:20:44;2.47;;;1.33;;
65463;SDS011;52063;45.110;9.870;2022-08-19T12:23:10;3.53;;;1.30;;
65463;SDS011;52063;45.110;9.870;2022-08-19T12:25:37;5.10;;;1.50;;
65463;SDS011;52063;45.110;9.870;2022-08-19T12:28:02;2.57;;;1.10;;
65463;SDS011;52063;45.110;9.870;2022-08-19T12:30:28;2.55;;;1.30;;
65463;SDS011;52063;45.110;9.870;2022-08-19T12:32:53;1.75;;;1.38;;
65463;SDS011;52063;45.110;9.870;2022-08-19T12:35:19;2.83;;;1.10;;
65463;SDS011;52063;45.110;9.870;2022-08-19T12:37:47;1.60;;;1.15;;
65463;SDS011;52063;45.110;9.870;2022-08-19T12:40:14;6.30;;;1.30;;
65463;SDS011;52063;45.110;9.870;2022-08-19T12:42:39;1.63;;;1.02;;
65463;SDS011;52063;45.110;9.870;2022-08-19T12:45:10;2.45;;;1.15;;
65463;SDS011;52063;45.110;9.870;2022-08-19T12:47:36;1.40;;;1.15;;
65463;SDS011;52063;45.110;9.870;2022-08-19T12:50:01;1.40;;;0.90;;
65463;SDS011;52063;45.110;9.870;2022-08-19T12:52:27;2.37;;;1.10;;
65463;SDS011;52063;45.110;9.870;2022-08-19T12:54:56;1.67;;;1.10;;
65463;SDS011;52063;45.110;9.870;2022-08-19T12:57:25;1.90;;;0.73;;
65463;SDS011;52063;45.110;9.870;2022-08-19T12:59:52;2.10;;;0.70;;
65463;SDS011;52063;45.110;9.870;2022-08-19T13:02:18;2.03;;;0.63;;
65463;SDS011;52063;45.110;9.870;2022-08-19T13:04:43;1.17;;;0.80;;
65463;SDS011;52063;45.110;9.870;2022-08-19T13:07:09;2.97;;;0.90;;
65463;SDS011;52063;45.110;9.870;2022-08-19T13:09:35;2.43;;;0.93;;
65463;SDS011;52063;45.110;9.870;2022-08-19T13:12:00;2.73;;;0.80;;
65463;SDS011;52063;45.110;9.870;2022-08-19T13:14:28;2.15;;;0.60;;
65463;SDS011;52063;45.110;9.870;2022-08-19T13:16:56;1.52;;;0.90;;
65463;SDS011;52063;45.110;9.870;2022-08-19T13:19:22;3.37;;;0.90;;
65463;SDS011;52063;45.110;9.870;2022-08-19T13:21:51;4.80;;;0.80;;
65463;SDS011;52063;45.110;9.870;2022-08-19T13:24:17;1.98;;;0.73;;
65463;SDS011;52063;45.110;9.870;2022-08-19T13:26:42;1.53;;;1.00;;
65463;SDS011;52063;45.110;9.870;2022-08-19T13:29:07;1.73;;;0.90;;
65463;SDS011;52063;45.110;9.870;2022-08-19T13:31:51;2.60;;;0.95;;
65463;SDS011;52063;45.110;9.870;2022-08-19T13:34:35;2.08;;;1.00;;
65463;SDS011;52063;45.110;9.870;2022-08-19T13:37:02;2.47;;;0.90;;
65463;SDS011;52063;45.110;9.870;2022-08-19T13:39:31;3.72;;;1.20;;
65463;SDS011;52063;45.110;9.870;2022-08-19T13:41:57;3.00;;;1.30;;
65463;SDS011;52063;45.110;9.870;2022-08-19T13:44:25;2.60;;;1.00;;
65463;SDS011;52063;45.110;9.870;2022-08-19T13:46:51;2.33;;;1.00;;
65463;SDS011;52063;45.110;9.870;2022-08-19T13:49:18;2.08;;;1.08;;
65463;SDS011;52063;45.110;9.870;2022-08-19T13:51:43;2.50;;;0.87;;
65463;SDS011;52063;45.110;9.870;2022-08-19T13:54:10;3.25;;;0.90;;
65463;SDS011;52063;45.110;9.870;2022-08-19T13:56:39;3.13;;;0.83;;
65463;SDS011;52063;45.110;9.870;2022-08-19T13:59:05;1.60;;;0.80;;
65463;SDS011;52063;45.110;9.870;2022-08-19T14:01:30;1.70;;;0.70;;
65463;SDS011;52063;45.110;9.870;2022-08-19T14:03:55;3.50;;;0.85;;
65463;SDS011;52063;45.110;9.870;2022-08-19T14:06:21;2.53;;;1.10;;
65463;SDS011;52063;45.110;9.870;2022-08-19T14:08:47;1.05;;;0.75;;
65463;SDS011;52063;45.110;9.870;2022-08-19T14:11:13;2.27;;;0.80;;
65463;SDS011;52063;45.110;9.870;2022-08-19T14:13:38;1.40;;;0.63;;
65463;SDS011;52063;45.110;9.870;2022-08-19T14:16:07;2.10;;;0.83;;
65463;SDS011;52063;45.110;9.870;2022-08-19T14:18:33;3.40;;;0.63;;
65463;SDS011;52063;45.110;9.870;2022-08-19T14:20:59;1.13;;;0.50;;
65463;SDS011;52063;45.110;9.870;2022-08-19T14:23:24;1.17;;;0.60;;
65463;SDS011;52063;45.110;9.870;2022-08-19T14:25:49;1.17;;;0.63;;
65463;SDS011;52063;45.110;9.870;2022-08-19T14:28:15;2.95;;;0.50;;
65463;SDS011;52063;45.110;9.870;2022-08-19T14:30:42;1.63;;;0.67;;
65463;SDS011;52063;45.110;9.870;2022-08-19T14:33:09;1.35;;;0.70;;
65463;SDS011;52063;45.110;9.870;2022-08-19T14:35:34;0.80;;;0.60;;
65463;SDS011;52063;45.110;9.870;2022-08-19T14:38:00;1.40;;;0.80;;
65463;SDS011;52063;45.110;9.870;2022-08-19T14:40:28;0.93;;;0.57;;
65463;SDS011;52063;45.110;9.870;2022-08-19T14:42:55;1.80;;;0.60;;
65463;SDS011;52063;45.110;9.870;2022-08-19T14:45:24;0.93;;;0.63;;
65463;SDS011;52063;45.110;9.870;2022-08-19T14:47:49;1.08;;;0.60;;
65463;SDS011;52063;45.110;9.870;2022-08-19T14:50:15;1.90;;;0.50;;
65463;SDS011;52063;45.110;9.870;2022-08-19T14:52:40;0.90;;;0.50;;
65463;SDS011;52063;45.110;9.870;2022-08-19T14:55:06;1.23;;;0.50;;
65463;SDS011;52063;45.110;9.870;2022-08-19T14:57:31;1.30;;;0.50;;
65463;SDS011;52063;45.110;9.870;2022-08-19T14:59:56;1.40;;;0.77;;
65463;SDS011;52063;45.110;9.870;2022-08-19T15:02:22;1.33;;;0.50;;